Time;durP1;ratioP1;P1;durP2;ratioP2;P2;SDS_P1;SDS_P2;PMS_P1;PMS_P2;Temp;Humidity;BMP_temperature;BMP_pressure;BME280_temperature;BME280_humidity;BME280_pressure;Samples;Min_cycle;Max_cycle;Signal;HPM_P1;HPM_P2
2023/03/11 00:00:52;;;;;;;2.67;1.30;;;;;;;2.41;94.60;151986.25;5068289;28;20858;-77
2023/03/11 00:03:21;;;;;;;2.30;1.57;;;;;;;2.43;96.86;151990.13;5067958;28;20502;-77
2023/03/11 00:05:48;;;;;;;1.00;0.67;;;;;;;2.36;96.42;151973.41;5066532;28;20445;-77
2023/03/11 00:08:17;;;;;;;2.17;1.20;;;;;;;2.30;95.15;151957.94;5064073;28;20949;-77
2023/03/11 00:10:45;;;;;;;1.90;0.93;;;;;;;2.29;95.75;151955.41;5081836;28;20475;-78
2023/03/11 00:13:14;;;;;;;1.43;0.87;;;;;;;2.28;95.79;151951.53;5091102;28;20933;-77
2023/03/11 00:15:41;;;;;;;1.90;1.47;;;;;;;2.29;97.91;151954.13;5056019;28;20466;-77
2023/03/11 00:18:10;;;;;;;1.90;1.20;;;;;;;2.13;97.15;151914.25;5068068;28;20476;-77
2023/03/11 00:20:38;;;;;;;1.60;0.97;;;;;;;2.08;96.43;151901.41;5073124;28;20837;-77
2023/03/11 00:23:06;;;;;;;1.57;1.03;;;;;;;2.09;98.04;151903.94;5071780;28;20535;-77
2023/03/11 00:25:34;;;;;;;2.90;1.07;;;;;;;2.11;98.76;151909.13;5049455;28;20485;-77
2023/03/11 00:28:01;;;;;;;2.07;1.20;;;;;;;2.07;97.10;151898.81;5084155;28;20446;-77
2023/03/11 00:30:28;;;;;;;1.30;0.97;;;;;;;2.15;97.73;151919.41;5086371;28;21005;-77
2023/03/11 00:32:57;;;;;;;1.60;1.10;;;;;;;2.14;97.75;151916.84;5073060;28;20437;-77
2023/03/11 00:35:27;;;;;;;2.03;1.00;;;;;;;2.25;97.34;151943.84;5070886;28;20470;-77
2023/03/11 00:37:55;;;;;;;1.80;1.10;;;;;;;2.19;97.43;151929.72;5068762;28;20449;-77
2023/03/11 00:40:23;;;;;;;1.50;1.20;;;;;;;2.20;96.88;151930.94;5069667;28;20786;-77
2023/03/11 00:42:50;;;;;;;2.10;1.50;;;;;;;2.14;95.73;151916.84;5051491;28;20446;-77
2023/03/11 00:45:17;;;;;;;1.80;1.37;;;;;;;2.13;95.35;151914.25;5070583;28;20501;-77
2023/03/11 00:47:44;;;;;;;2.23;1.23;;;;;;;2.19;96.34;151928.41;5078880;28;20938;-77
2023/03/11 00:50:16;;;;;;;1.90;1.33;;;;;;;2.17;95.91;151924.53;5085885;28;20518;-77
2023/03/11 00:52:45;;;;;;;2.07;1.13;;;;;;;2.16;94.32;151921.97;5057646;28;20446;-77
2023/03/11 00:55:14;;;;;;;3.53;1.20;;;;;;;2.15;97.36;151919.41;5075856;28;21082;-77
2023/03/11 00:57:41;;;;;;;1.77;1.23;;;;;;;2.16;96.98;151921.97;5051640;28;20450;-76
2023/03/11 01:00:13;;;;;;;1.73;1.10;;;;;;;2.18;98.06;151927.13;5070466;28;20426;-77
2023/03/11 01:02:39;;;;;;;1.53;1.27;;;;;;;2.14;98.10;151916.84;5049384;28;20945;-77
2023/03/11 01:05:07;;;;;;;2.67;1.87;;;;;;;2.11;97.54;151907.84;5080610;28;21127;-76
2023/03/11 01:07:34;;;;;;;2.10;1.37;;;;;;;2.16;97.52;151920.69;5048880;28;20445;-78
2023/03/11 01:10:02;;;;;;;1.67;1.20;;;;;;;2.15;97.79;151919.41;5084298;28;21112;-77
2023/03/11 01:12:29;;;;;;;1.90;1.50;;;;;;;2.12;96.83;151911.69;5064655;28;20438;-78
2023/03/11 01:14:55;;;;;;;3.23;1.60;;;;;;;2.11;98.68;151909.13;5070675;28;20551;-78
2023/03/11 01:17:22;;;;;;;1.93;1.53;;;;;;;2.16;96.77;151921.97;5086304;28;20887;-78
2023/03/11 01:19:49;;;;;;;3.13;1.70;;;;;;;2.18;97.65;151927.13;5081021;28;20451;-77
2023/03/11 01:22:16;;;;;;;2.03;1.47;;;;;;;2.12;97.86;151910.44;5052467;28;20446;-78
2023/03/11 01:24:43;;;;;;;2.67;1.67;;;;;;;2.12;98.39;151911.69;5064392;28;20879;-77
2023/03/11 01:27:11;;;;;;;2.23;1.73;;;;;;;2.21;97.42;151933.53;5071149;28;20449;-78
2023/03/11 01:29:37;;;;;;;2.50;1.50;;;;;;;2.26;93.98;151946.41;5064597;28;20521;-78
2023/03/11 01:32:05;;;;;;;2.20;1.50;;;;;;;2.19;94.66;151929.72;5062099;28;20456;-77
2023/03/11 01:34:34;;;;;;;2.07;1.60;;;;;;;2.16;93.37;151921.97;5058999;28;20456;-78
2023/03/11 01:37:01;;;;;;;2.17;1.70;;;;;;;2.15;93.97;151918.09;5060857;28;20440;-78
2023/03/11 01:39:27;;;;;;;2.60;1.50;;;;;;;2.05;94.46;151892.41;5065188;28;20463;-78
2023/03/11 01:41:55;;;;;;;1.77;1.47;;;;;;;2.04;92.64;151891.09;5086621;28;20438;-78
2023/03/11 01:44:23;;;;;;;1.63;1.30;;;;;;;1.99;92.57;151878.25;5066802;28;20480;-78
2023/03/11 01:47:32;;;;;;;2.20;1.43;;;;;;;1.96;92.59;151869.28;5049040;28;20545;-78
2023/03/11 01:49:59;;;;;;;2.27;1.73;;;;;;;1.87;92.13;151847.41;5069761;28;20440;-78
2023/03/11 01:52:25;;;;;;;2.40;1.43;;;;;;;1.85;92.64;151842.28;5051287;28;20454;-78
2023/03/11 01:54:53;;;;;;;2.00;1.53;;;;;;;1.79;92.99;151826.84;5070594;28;20485;-77
2023/03/11 01:57:21;;;;;;;1.40;1.20;;;;;;;1.73;90.81;151811.41;5049199;28;20442;-78
2023/03/11 01:59:53;;;;;;;2.07;1.40;;;;;;;1.69;92.94;151802.47;5053087;28;20572;-77
2023/03/11 02:02:22;;;;;;;1.50;1.30;;;;;;;1.68;93.47;151799.88;5054703;28;20453;-77
2023/03/11 02:04:49;;;;;;;1.93;1.40;;;;;;;1.63;92.98;151785.72;5084363;28;20470;-78
2023/03/11 02:07:16;;;;;;;2.87;1.73;;;;;;;1.63;92.50;151785.72;5060124;28;20443;-78
2023/03/11 02:09:44;;;;;;;4.30;1.70;;;;;;;1.60;93.79;151778.00;5056539;28;20561;-78
2023/03/11 02:12:13;;;;;;;1.80;1.50;;;;;;;1.55;91.92;151765.16;5069567;28;20453;-77
2023/03/11 02:14:43;;;;;;;2.00;1.63;;;;;;;1.57;90.64;151771.59;5066138;28;20450;-78
2023/03/11 02:17:11;;;;;;;2.53;1.53;;;;;;;1.62;94.09;151783.13;5070280;28;20479;-77
2023/03/11 02:19:52;;;;;;;2.80;1.63;;;;;;;1.55;93.54;151766.47;5072187;28;20514;-77
2023/03/11 02:22:19;;;;;;;2.53;1.60;;;;;;;1.51;92.86;151754.91;5072283;28;20885;-77
2023/03/11 02:24:50;;;;;;;1.80;1.30;;;;;;;1.49;93.79;151749.72;5070133;28;21036;-77
2023/03/11 02:27:20;;;;;;;1.80;1.47;;;;;;;1.55;93.70;151765.16;5073260;28;20444;-77
2023/03/11 02:29:50;;;;;;;3.33;1.43;;;;;;;1.53;94.00;151760.03;5073294;28;20437;-77
2023/03/11 02:32:18;;;;;;;1.93;1.47;;;;;;;1.54;90.39;151762.56;5056765;28;20549;-77
2023/03/11 02:34:46;;;;;;;2.40;1.33;;;;;;;1.51;90.53;151754.91;5073521;28;21011;-78
2023/03/11 02:37:15;;;;;;;1.83;1.63;;;;;;;1.46;93.16;151743.31;5053558;28;20452;-78
2023/03/11 02:39:48;;;;;;;1.37;1.07;;;;;;;1.41;91.42;151730.47;5058436;28;20790;-77
2023/03/11 02:42:19;;;;;;;2.87;1.70;;;;;;;1.37;88.96;151718.91;5061542;28;20460;-77
2023/03/11 02:44:51;;;;;;;2.80;1.70;;;;;;;1.32;90.79;151706.06;5045954;28;20579;-77
2023/03/11 02:47:18;;;;;;;1.50;1.33;;;;;;;1.24;91.34;151688.06;5088189;28;20426;-77
2023/03/11 02:49:44;;;;;;;1.60;1.30;;;;;;;1.18;91.33;151672.69;5076142;28;20489;-77
2023/03/11 02:52:11;;;;;;;1.87;1.40;;;;;;;1.18;92.11;151672.69;5053697;28;20448;-77
2023/03/11 02:54:38;;;;;;;2.27;1.87;;;;;;;1.09;92.66;151648.25;5053896;28;20488;-77
2023/03/11 02:57:05;;;;;;;1.83;1.40;;;;;;;1.04;93.11;151636.69;5053745;28;20509;-77
2023/03/11 02:59:33;;;;;;;1.83;1.50;;;;;;;1.02;93.85;151631.56;5058754;28;20448;-77
2023/03/11 03:02:01;;;;;;;4.37;1.67;;;;;;;0.99;93.20;151622.56;5056710;28;20441;-77
2023/03/11 03:04:28;;;;;;;2.10;1.37;;;;;;;0.96;94.16;151616.16;5053620;28;20990;-77
2023/03/11 03:06:56;;;;;;;2.27;1.40;;;;;;;0.98;94.58;151621.28;5088212;28;20437;-77
2023/03/11 03:09:23;;;;;;;2.30;1.60;;;;;;;0.89;92.32;151596.88;5080886;28;20462;-77
2023/03/11 03:11:49;;;;;;;3.50;1.83;;;;;;;0.87;93.98;151593.06;5056729;28;20439;-79
2023/03/11 03:14:16;;;;;;;5.10;1.50;;;;;;;0.84;94.33;151584.06;5051032;28;20449;-76
2023/03/11 03:16:44;;;;;;;1.50;0.97;;;;;;;0.74;92.52;151559.66;5075883;28;21027;-77
2023/03/11 03:19:11;;;;;;;1.77;1.13;;;;;;;0.78;93.93;151569.91;5087023;28;20442;-77
2023/03/11 03:21:38;;;;;;;2.00;1.30;;;;;;;0.68;92.55;151544.25;5055528;28;20441;-77
2023/03/11 03:24:05;;;;;;;1.70;1.17;;;;;;;0.69;94.81;151545.53;5070486;28;20470;-78
2023/03/11 03:26:32;;;;;;;2.90;1.37;;;;;;;0.68;94.05;151542.97;5083217;28;20540;-78
2023/03/11 03:28:59;;;;;;;2.13;1.10;;;;;;;0.66;94.20;151539.13;5068443;28;20445;-77
2023/03/11 03:31:26;;;;;;;1.73;1.10;;;;;;;0.58;94.25;151519.81;5060032;28;20851;-78
2023/03/11 03:33:54;;;;;;;4.03;1.30;;;;;;;0.56;93.61;151513.41;5065929;28;20451;-78
2023/03/11 03:36:21;;;;;;;1.67;1.37;;;;;;;0.53;94.33;151507.00;5060367;28;20448;-78
2023/03/11 03:38:55;;;;;;;2.53;1.30;;;;;;;0.48;94.01;151494.16;5070159;28;20444;-77
2023/03/11 03:41:22;;;;;;;5.03;1.93;;;;;;;0.42;93.83;151477.50;5056169;28;20460;-78
2023/03/11 03:43:49;;;;;;;2.53;1.00;;;;;;;0.37;93.96;151464.66;5055452;28;20475;-78
2023/03/11 03:46:17;;;;;;;2.10;0.93;;;;;;;0.32;95.23;151453.06;5084567;28;20459;-78
2023/03/11 03:48:47;;;;;;;2.20;1.30;;;;;;;0.35;95.98;151459.50;5056846;28;20521;-78
2023/03/11 03:51:15;;;;;;;1.30;1.00;;;;;;;0.32;95.70;151451.84;5090663;28;20855;-78
2023/03/11 03:53:54;;;;;;;2.70;1.37;;;;;;;0.26;95.77;151437.72;5054934;28;20467;-78
2023/03/11 03:56:21;;;;;;;2.17;1.70;;;;;;;0.25;95.27;151433.84;5089487;28;20794;-78
2023/03/11 03:58:48;;;;;;;2.50;1.37;;;;;;;0.25;96.10;151433.84;5072217;28;20443;-77
2023/03/11 04:01:15;;;;;;;2.17;1.47;;;;;;;0.25;96.85;151435.13;5080474;28;20452;-78
2023/03/11 04:03:42;;;;;;;1.30;1.13;;;;;;;0.22;95.81;151426.13;5070267;28;20462;-78
2023/03/11 04:06:17;;;;;;;2.60;1.00;;;;;;;0.15;94.62;151408.19;5073034;28;20996;-77
2023/03/11 04:08:45;;;;;;;2.17;1.37;;;;;;;0.14;95.59;151406.88;5069312;28;20474;-77
2023/03/11 04:11:12;;;;;;;2.20;1.33;;;;;;;0.15;96.36;151409.47;5058364;28;20449;-78
2023/03/11 04:13:38;;;;;;;1.90;1.10;;;;;;;0.13;95.75;151403.06;5049955;28;20874;-78
2023/03/11 04:16:07;;;;;;;2.80;1.50;;;;;;;0.09;95.05;151392.75;5071090;28;20459;-79
2023/03/11 04:18:34;;;;;;;2.90;1.50;;;;;;;0.04;95.12;151379.94;5057008;28;20539;-77
2023/03/11 04:21:05;;;;;;;2.13;1.30;;;;;;;0.05;95.62;151382.50;5057969;28;20452;-78
2023/03/11 04:23:33;;;;;;;1.33;0.90;;;;;;;0.08;97.32;151390.22;5083822;28;20446;-78
2023/03/11 04:26:00;;;;;;;1.77;1.10;;;;;;;0.09;97.33;151394.06;5072116;28;20978;-78
2023/03/11 04:28:27;;;;;;;1.90;1.43;;;;;;;0.00;95.99;151372.22;5052535;28;20452;-78
2023/03/11 04:30:54;;;;;;;2.30;1.17;;;;;;;-0.04;96.83;151361.97;5067098;28;20476;-78
2023/03/11 04:33:21;;;;;;;3.17;1.67;;;;;;;-0.03;97.09;151364.53;5073905;28;20439;-78
2023/03/11 04:35:48;;;;;;;1.73;1.40;;;;;;;-0.02;97.89;151367.09;5070694;28;20452;-78
2023/03/11 04:38:17;;;;;;;2.70;1.70;;;;;;;-0.09;96.38;151347.88;5053757;28;20913;-78
2023/03/11 04:40:45;;;;;;;1.90;1.40;;;;;;;-0.10;97.60;151346.56;5044014;28;20555;-78
2023/03/11 04:43:12;;;;;;;1.90;1.57;;;;;;;-0.10;97.63;151346.56;5055066;28;20502;-77
2023/03/11 04:45:39;;;;;;;2.53;1.63;;;;;;;-0.10;98.28;151345.28;5053770;28;20487;-78
2023/03/11 04:48:07;;;;;;;1.80;1.60;;;;;;;-0.15;97.33;151332.47;5061823;28;20448;-77
2023/03/11 04:50:34;;;;;;;3.30;1.90;;;;;;;-0.15;97.85;151333.75;5059116;28;20449;-78
2023/03/11 04:53:01;;;;;;;3.80;1.80;;;;;;;-0.13;98.66;151338.88;5089750;28;20813;-79
2023/03/11 04:55:29;;;;;;;1.70;1.10;;;;;;;-0.20;98.57;151320.91;5068029;28;20531;-78
2023/03/11 04:57:57;;;;;;;1.80;1.20;;;;;;;-0.24;97.66;151310.63;5054735;28;20445;-77
2023/03/11 05:00:24;;;;;;;2.30;1.77;;;;;;;-0.24;97.93;151310.63;5056625;28;20452;-78
2023/03/11 05:02:57;;;;;;;4.40;1.33;;;;;;;-0.23;98.91;151313.22;5056837;28;20441;-77
2023/03/11 05:05:25;;;;;;;2.20;1.33;;;;;;;-0.25;99.05;151308.09;5055493;28;20471;-78
2023/03/11 05:07:51;;;;;;;2.13;1.60;;;;;;;-0.20;99.26;151320.91;5055467;28;20443;-78
2023/03/11 05:10:21;;;;;;;2.40;1.50;;;;;;;-0.24;98.39;151310.63;5084124;28;20458;-77
2023/03/11 05:12:49;;;;;;;2.40;1.70;;;;;;;-0.24;99.31;151310.63;5090240;28;20476;-78
2023/03/11 05:15:18;;;;;;;2.23;1.57;;;;;;;-0.28;97.14;151299.09;5090724;28;20427;-77
2023/03/11 05:17:45;;;;;;;3.67;1.43;;;;;;;-0.21;98.58;151318.34;5064832;28;20469;-78
2023/03/11 05:20:13;;;;;;;2.03;1.47;;;;;;;-0.22;99.21;151314.50;5067059;28;20497;-77
2023/03/11 05:22:40;;;;;;;1.83;1.47;;;;;;;-0.30;98.69;151295.28;5056178;28;20465;-78
2023/03/11 05:25:07;;;;;;;2.57;1.23;;;;;;;-0.33;98.53;151287.56;5068713;28;20477;-77
2023/03/11 05:27:34;;;;;;;2.50;1.17;;;;;;;-0.37;97.36;151277.28;5053546;28;20480;-77
2023/03/11 05:30:00;;;;;;;1.40;1.30;;;;;;;-0.38;97.65;151273.44;5089320;28;20502;-78
2023/03/11 05:32:32;;;;;;;2.60;1.30;;;;;;;-0.36;100.00;151278.56;5068596;28;20509;-77
2023/03/11 05:34:59;;;;;;;1.73;1.10;;;;;;;-0.41;99.70;151267.03;5070742;28;20996;-77
2023/03/11 05:37:26;;;;;;;2.00;1.30;;;;;;;-0.37;100.00;151277.28;5053936;28;20498;-77
2023/03/11 05:39:54;;;;;;;2.27;1.90;;;;;;;-0.36;100.00;151279.88;5054749;28;20458;-77
2023/03/11 05:42:22;;;;;;;2.70;1.83;;;;;;;-0.38;100.00;151274.75;5069057;28;20450;-77
2023/03/11 05:44:52;;;;;;;2.10;1.17;;;;;;;-0.41;100.00;151267.03;5072573;28;20828;-78
2023/03/11 05:47:19;;;;;;;1.83;1.10;;;;;;;-0.41;100.00;151265.75;5066986;28;20447;-78
2023/03/11 05:49:49;;;;;;;1.83;1.30;;;;;;;-0.41;100.00;151267.03;5070129;28;20467;-78
2023/03/11 05:52:18;;;;;;;3.77;1.37;;;;;;;-0.45;100.00;151256.75;5050250;28;20445;-77
2023/03/11 05:54:45;;;;;;;2.03;1.43;;;;;;;-0.44;100.00;151258.03;5060738;28;20463;-77
2023/03/11 05:57:12;;;;;;;2.57;1.70;;;;;;;-0.42;100.00;151263.16;5086832;28;20451;-77
2023/03/11 05:59:38;;;;;;;2.50;1.37;;;;;;;-0.37;100.00;151277.28;5068415;28;20543;-77
2023/03/11 06:02:05;;;;;;;1.80;1.20;;;;;;;-0.37;99.54;151276.03;5072962;28;20440;-78
2023/03/11 06:04:32;;;;;;;2.43;1.47;;;;;;;-0.39;99.95;151272.16;5074819;28;20473;-78
2023/03/11 06:07:02;;;;;;;1.87;1.50;;;;;;;-0.38;99.39;151274.75;5043829;28;20452;-78
2023/03/11 06:09:35;;;;;;;3.10;1.73;;;;;;;-0.39;99.04;151272.16;5058125;28;20544;-78
2023/03/11 06:12:03;;;;;;;1.37;1.00;;;;;;;-0.39;98.47;151272.16;5041645;28;20472;-78
2023/03/11 06:14:42;;;;;;;2.63;2.10;;;;;;;-0.37;99.69;151277.28;5048378;28;20462;-78
2023/03/11 06:17:09;;;;;;;3.00;1.50;;;;;;;-0.31;100.00;151291.41;5072097;28;20986;-78
2023/03/11 06:19:36;;;;;;;2.17;1.20;;;;;;;-0.29;99.59;151296.56;5067287;28;20460;-77
2023/03/11 06:22:04;;;;;;;2.47;1.33;;;;;;;-0.24;99.11;151309.38;5049667;28;20453;-78
2023/03/11 06:24:31;;;;;;;5.27;1.57;;;;;;;-0.11;100.00;151344.00;5070183;28;20446;-78
2023/03/11 06:26:58;;;;;;;1.50;1.23;;;;;;;0.02;100.00;151374.81;5056277;28;20453;-77
2023/03/11 06:29:28;;;;;;;1.60;1.20;;;;;;;0.15;98.43;151408.19;5054756;28;20452;-78
2023/03/11 06:31:55;;;;;;;2.67;1.47;;;;;;;0.32;98.50;151451.84;5071664;28;20494;-78
2023/03/11 06:34:23;;;;;;;3.03;1.43;;;;;;;0.46;97.48;151489.03;5060060;28;20460;-77
2023/03/11 06:36:51;;;;;;;1.97;1.50;;;;;;;0.58;96.58;151518.59;5053995;28;20444;-78
2023/03/11 06:39:19;;;;;;;1.80;1.23;;;;;;;0.71;97.47;151550.66;5055334;28;20462;-77
2023/03/11 06:41:49;;;;;;;2.63;1.70;;;;;;;0.86;97.97;151590.47;5045683;28;20455;-77
2023/03/11 06:44:16;;;;;;;3.70;1.60;;;;;;;0.88;94.43;151595.59;5056387;28;20449;-77
2023/03/11 06:46:43;;;;;;;3.73;1.50;;;;;;;1.00;94.38;151626.44;5066159;28;20515;-77
2023/03/11 06:49:10;;;;;;;2.10;1.57;;;;;;;1.14;95.08;151662.38;5073726;28;20861;-77
2023/03/11 06:51:40;;;;;;;1.83;1.00;;;;;;;1.20;96.56;151676.50;5059953;28;20444;-76
2023/03/11 06:54:07;;;;;;;3.37;1.80;;;;;;;1.24;95.54;151688.06;5051193;28;20453;-77
2023/03/11 06:56:35;;;;;;;2.80;1.37;;;;;;;1.18;93.13;151671.38;5059033;28;20439;-76
2023/03/11 06:59:05;;;;;;;2.73;1.50;;;;;;;1.30;93.49;151700.94;5064694;28;20447;-76
2023/03/11 07:01:34;;;;;;;2.83;1.00;;;;;;;1.47;93.76;151744.59;5060366;28;20530;-77
2023/03/11 07:04:03;;;;;;;2.07;1.70;;;;;;;1.68;93.44;151798.56;5060084;28;21116;-76
2023/03/11 07:06:31;;;;;;;1.63;1.27;;;;;;;1.98;92.07;151874.41;5042892;28;20977;-76
2023/03/11 07:09:21;;;;;;;3.83;1.77;;;;;;;2.29;88.18;151954.13;5059309;28;20842;-76
2023/03/11 07:11:49;;;;;;;2.67;1.40;;;;;;;2.68;90.33;152053.13;5059791;28;20953;-76
2023/03/11 07:14:23;;;;;;;7.90;1.63;;;;;;;2.99;88.42;152132.91;5060385;28;20558;-76
2023/03/11 07:16:53;;;;;;;2.60;1.40;;;;;;;3.33;88.35;152220.41;5064248;28;20466;-76
2023/03/11 07:19:27;;;;;;;2.00;1.07;;;;;;;3.57;84.73;152280.91;5059656;28;20450;-76
2023/03/11 07:21:53;;;;;;;3.07;1.37;;;;;;;3.80;81.11;152338.81;5043915;28;20450;-76
2023/03/11 07:24:20;;;;;;;3.63;1.97;;;;;;;3.91;82.33;152368.47;5064697;28;20465;-76
2023/03/11 07:26:48;;;;;;;2.60;1.20;;;;;;;3.85;82.15;152351.69;5075982;28;20828;-77
2023/03/11 07:29:15;;;;;;;3.20;1.80;;;;;;;3.85;81.39;152351.69;5058394;28;20549;-76
2023/03/11 07:31:42;;;;;;;2.53;1.03;;;;;;;3.88;81.24;152360.72;5071571;28;20450;-77
2023/03/11 07:34:12;;;;;;;2.80;1.30;;;;;;;3.92;80.15;152369.75;5074892;28;20443;-77
2023/03/11 07:36:40;;;;;;;1.97;1.10;;;;;;;4.05;79.65;152403.22;5055564;28;20447;-77
2023/03/11 07:39:07;;;;;;;4.67;1.33;;;;;;;4.14;80.95;152426.38;5060642;28;20533;-77
2023/03/11 07:41:35;;;;;;;3.67;1.50;;;;;;;4.38;81.17;152488.22;5055237;28;20842;-77
2023/03/11 07:44:04;;;;;;;2.10;1.33;;;;;;;4.82;77.60;152601.56;5076662;28;20584;-77
2023/03/11 07:46:31;;;;;;;2.13;0.87;;;;;;;5.26;75.96;152712.44;5059419;28;20482;-77
2023/03/11 07:48:58;;;;;;;1.30;1.03;;;;;;;5.68;75.49;152819.44;5057549;28;20520;-77
2023/03/11 07:51:26;;;;;;;6.40;1.30;;;;;;;6.06;70.36;152918.78;5058933;28;20485;-77
2023/03/11 07:53:54;;;;;;;3.00;0.90;;;;;;;6.32;68.02;152983.31;5056951;28;20454;-77
2023/03/11 07:56:22;;;;;;;2.90;0.97;;;;;;;6.53;66.02;153037.50;5060192;28;20447;-77
2023/03/11 07:58:49;;;;;;;2.90;1.43;;;;;;;6.84;68.35;153117.53;5071377;28;20973;-77
2023/03/11 08:01:18;;;;;;;2.57;1.20;;;;;;;7.09;66.54;153180.81;5054939;28;20471;-76
2023/03/11 08:03:48;;;;;;;2.97;1.70;;;;;;;7.40;65.54;153259.53;5072761;28;20447;-76
2023/03/11 08:06:16;;;;;;;2.70;1.50;;;;;;;7.73;65.03;153346.06;5058474;28;20524;-77
2023/03/11 08:08:43;;;;;;;2.23;1.20;;;;;;;7.84;62.18;153373.19;5058645;28;20454;-77
2023/03/11 08:11:11;;;;;;;4.33;1.23;;;;;;;7.98;61.38;153409.41;5054116;28;20455;-77
2023/03/11 08:13:38;;;;;;;3.13;1.40;;;;;;;8.21;63.41;153468.81;5059330;28;20985;-76
2023/03/11 08:16:07;;;;;;;2.43;1.10;;;;;;;8.14;62.02;153450.75;5055503;28;20455;-77
2023/03/11 08:18:35;;;;;;;3.90;1.20;;;;;;;8.01;57.42;153417.16;5056020;28;20955;-76
2023/03/11 08:21:04;;;;;;;2.30;1.13;;;;;;;7.99;59.05;153412.00;5058307;28;20459;-76
2023/03/11 08:23:31;;;;;;;4.83;1.07;;;;;;;7.87;61.42;153380.97;5075838;28;20431;-76
2023/03/11 08:25:58;;;;;;;3.73;1.33;;;;;;;7.43;62.69;153268.59;5077687;28;20664;-76
2023/03/11 08:28:25;;;;;;;1.83;1.33;;;;;;;7.03;62.25;153166.59;5077092;28;21053;-76
2023/03/11 08:30:51;;;;;;;3.17;1.70;;;;;;;6.88;63.96;153127.88;5076289;28;20484;-77
2023/03/11 08:33:18;;;;;;;4.23;1.50;;;;;;;6.65;64.28;153069.78;5077617;28;20537;-76
2023/03/11 08:35:46;;;;;;;1.77;1.30;;;;;;;6.41;63.71;153006.53;5068370;28;20457;-76
2023/03/11 08:38:13;;;;;;;2.93;1.30;;;;;;;6.28;65.39;152974.28;5076349;28;20446;-77
2023/03/11 08:40:39;;;;;;;1.40;1.23;;;;;;;6.08;66.59;152923.97;5058975;28;20453;-76
2023/03/11 08:43:06;;;;;;;1.70;1.20;;;;;;;5.94;68.03;152886.56;5076503;28;20439;-77
2023/03/11 08:45:33;;;;;;;2.43;1.13;;;;;;;5.34;65.58;152733.06;5073910;28;20473;-76
2023/03/11 08:48:00;;;;;;;2.10;1.10;;;;;;;5.01;62.96;152647.97;5057702;28;20455;-76
2023/03/11 08:50:27;;;;;;;1.73;1.10;;;;;;;4.68;65.34;152565.53;5078337;28;20924;-76
2023/03/11 08:52:59;;;;;;;2.43;1.60;;;;;;;4.47;64.74;152510.13;5073607;28;20553;-76
2023/03/11 08:55:27;;;;;;;1.70;1.20;;;;;;;4.40;68.12;152492.06;5057112;28;21027;-76
2023/03/11 08:57:53;;;;;;;2.50;1.53;;;;;;;4.41;63.64;152495.94;5057465;28;20445;-76
2023/03/11 09:00:21;;;;;;;1.57;1.10;;;;;;;4.39;69.93;152490.81;5076537;28;20454;-76
2023/03/11 09:02:48;;;;;;;3.70;1.60;;;;;;;4.37;69.17;152485.63;5061293;28;20853;-76
2023/03/11 09:05:15;;;;;;;1.80;1.10;;;;;;;4.43;65.52;152501.09;5077664;28;20449;-77
2023/03/11 09:07:42;;;;;;;2.27;1.23;;;;;;;4.36;70.44;152481.78;5042882;28;20458;-77
2023/03/11 09:10:11;;;;;;;4.20;1.57;;;;;;;4.34;69.85;152476.63;5060806;28;20454;-76
2023/03/11 09:12:38;;;;;;;4.93;1.30;;;;;;;4.23;64.84;152449.59;5058137;28;20442;-76
2023/03/11 09:15:06;;;;;;;4.23;1.37;;;;;;;4.02;69.41;152396.78;5056430;28;20485;-76
2023/03/11 09:17:32;;;;;;;1.93;1.30;;;;;;;3.87;70.06;152356.81;5058262;28;20493;-76
2023/03/11 09:19:59;;;;;;;3.00;1.17;;;;;;;3.82;68.23;152345.25;5057958;28;20533;-76
2023/03/11 09:22:26;;;;;;;3.00;1.53;;;;;;;3.88;70.96;152359.44;5059323;28;20948;-76
2023/03/11 09:24:53;;;;;;;2.03;1.43;;;;;;;3.92;71.40;152371.00;5074965;28;20449;-76
2023/03/11 09:27:21;;;;;;;2.50;1.57;;;;;;;3.86;71.58;152355.56;5076082;28;20585;-76
2023/03/11 09:29:47;;;;;;;2.63;1.30;;;;;;;3.84;68.06;152350.41;5072517;28;21023;-76
2023/03/11 09:32:15;;;;;;;2.53;1.40;;;;;;;3.76;70.70;152328.53;5068443;28;20450;-76
2023/03/11 09:34:42;;;;;;;1.83;1.13;;;;;;;3.76;70.41;152328.53;5075593;28;20545;-76
2023/03/11 09:37:08;;;;;;;1.60;1.30;;;;;;;3.74;66.01;152324.66;5074723;28;20552;-76
2023/03/11 09:39:35;;;;;;;3.73;1.20;;;;;;;3.75;69.78;152327.25;5058725;28;20815;-76
2023/03/11 09:42:04;;;;;;;2.47;1.50;;;;;;;3.86;73.08;152354.28;5075288;28;20532;-76
2023/03/11 09:44:36;;;;;;;4.00;1.77;;;;;;;3.96;72.38;152381.31;5073186;28;20464;-77
2023/03/11 09:47:19;;;;;;;2.70;1.47;;;;;;;3.91;66.72;152368.47;5072472;28;20462;-76
2023/03/11 09:49:57;;;;;;;1.83;1.23;;;;;;;3.78;67.87;152333.69;5066178;28;20454;-76
2023/03/11 09:52:27;;;;;;;1.93;1.07;;;;;;;3.78;67.46;152333.69;5058256;28;20972;-76
2023/03/11 09:54:55;;;;;;;2.20;1.33;;;;;;;3.58;64.82;152284.75;5075046;28;20457;-76
2023/03/11 09:57:24;;;;;;;3.67;1.83;;;;;;;3.40;65.46;152238.41;5075002;28;20453;-76
2023/03/11 09:59:52;;;;;;;1.40;1.30;;;;;;;3.25;65.64;152198.53;5065210;28;20457;-76
2023/03/11 10:02:21;;;;;;;1.70;1.40;;;;;;;3.15;65.02;152174.03;5060038;28;20489;-77
2023/03/11 10:04:53;;;;;;;2.33;1.30;;;;;;;3.25;66.17;152199.81;5060154;28;20444;-75
2023/03/11 10:07:23;;;;;;;1.83;1.33;;;;;;;3.23;65.52;152194.63;5056509;28;20519;-76
2023/03/11 10:09:52;;;;;;;1.67;1.23;;;;;;;3.24;70.00;152197.22;5057806;28;20967;-76
2023/03/11 10:12:29;;;;;;;1.53;1.00;;;;;;;3.26;73.33;152202.38;5074488;28;20500;-85
2023/03/11 10:15:09;;;;;;;2.07;1.10;;;;;;;3.35;68.04;152225.56;5054039;28;20927;-86
2023/03/11 10:18:05;;;;;;;2.17;1.37;;;;;;;3.58;60.76;152284.75;5052910;28;20543;-85
2023/03/11 10:20:40;;;;;;;1.10;0.77;;;;;;;3.61;60.18;152291.19;5046176;28;20476;-86
2023/03/11 10:23:16;;;;;;;1.40;0.90;;;;;;;3.64;61.64;152298.91;5065130;28;20478;-85
2023/03/11 10:25:51;;;;;;;2.73;1.30;;;;;;;3.81;66.30;152342.72;5077080;28;20466;-87
2023/03/11 10:28:19;;;;;;;1.93;1.53;;;;;;;3.93;64.89;152372.28;5077248;28;20454;-86
2023/03/11 10:30:49;;;;;;;2.30;1.70;;;;;;;4.01;61.20;152394.19;5059026;28;20450;-86
2023/03/11 10:33:21;;;;;;;2.07;1.30;;;;;;;4.14;60.83;152426.38;5058767;28;20443;-88
2023/03/11 10:35:51;;;;;;;1.90;1.30;;;;;;;4.23;63.04;152449.59;5080230;28;20469;-85
2023/03/11 10:38:20;;;;;;;3.00;1.63;;;;;;;4.21;63.29;152444.41;5064497;28;20535;-85
2023/03/11 10:40:48;;;;;;;2.77;1.40;;;;;;;4.25;62.21;152456.03;5085218;28;20476;-86
2023/03/11 10:43:17;;;;;;;1.77;1.17;;;;;;;4.15;61.63;152428.97;5069194;28;20458;-85
2023/03/11 10:45:47;;;;;;;5.17;1.20;;;;;;;4.15;64.79;152428.97;5063745;28;20945;-85
2023/03/11 10:48:17;;;;;;;1.77;1.27;;;;;;;4.06;61.21;152405.78;5077000;28;20450;-86
2023/03/11 10:50:50;;;;;;;1.40;1.10;;;;;;;4.06;59.87;152407.06;5067227;28;20465;-85
2023/03/11 10:53:18;;;;;;;1.47;1.03;;;;;;;3.89;60.89;152362.00;5056499;28;20462;-86
2023/03/11 10:55:48;;;;;;;2.50;1.10;;;;;;;3.79;61.22;152337.53;5073909;28;20490;-86
2023/03/11 10:58:16;;;;;;;1.30;1.20;;;;;;;3.64;62.26;152300.22;5074068;28;20455;-86
2023/03/11 11:00:43;;;;;;;2.23;1.33;;;;;;;3.65;60.74;152301.50;5073981;28;20889;-85
2023/03/11 11:03:21;;;;;;;2.00;1.17;;;;;;;3.54;65.47;152274.47;5057701;28;20451;-85
2023/03/11 11:05:59;;;;;;;2.90;1.17;;;;;;;3.48;62.39;152257.72;5078684;28;20454;-86
2023/03/11 11:08:26;;;;;;;1.70;1.23;;;;;;;3.42;64.24;152243.56;5050307;28;20522;-86
2023/03/11 11:10:54;;;;;;;1.37;1.00;;;;;;;3.44;66.60;152247.44;5053988;28;20858;-85
2023/03/11 11:13:22;;;;;;;1.23;0.90;;;;;;;3.55;69.72;152277.03;5075084;28;20453;-85
2023/03/11 11:15:55;;;;;;;6.40;1.50;;;;;;;3.58;64.96;152284.75;5041944;28;20450;-85
2023/03/11 11:18:25;;;;;;;1.80;1.10;;;;;;;3.86;61.28;152354.28;5040407;28;20473;-86
2023/03/11 11:20:59;;;;;;;3.73;1.00;;;;;;;3.92;59.52;152371.00;5056328;28;20467;-86
2023/03/11 11:23:27;;;;;;;1.67;1.10;;;;;;;3.89;57.53;152362.00;5058646;28;21144;-86
2023/03/11 11:25:58;;;;;;;2.23;1.10;;;;;;;3.91;58.81;152368.47;5056477;28;20545;-86
2023/03/11 11:28:25;;;;;;;1.30;0.80;;;;;;;3.87;60.44;152356.81;5054229;28;20472;-86
2023/03/11 11:30:53;;;;;;;1.93;0.80;;;;;;;4.01;60.32;152392.91;5070861;28;20447;-86
2023/03/11 11:33:24;;;;;;;2.40;1.60;;;;;;;4.20;64.53;152441.84;5058609;28;20930;-86
2023/03/11 11:35:53;;;;;;;2.13;1.20;;;;;;;4.28;58.66;152462.47;5063834;28;20459;-85
2023/03/11 11:38:22;;;;;;;1.40;1.00;;;;;;;4.19;57.78;152440.56;5044492;28;20807;-86